createdAt,value
2023-03-29T00:01:35.063Z,13.82
2023-03-29T00:04:04.558Z,20.30
2023-03-29T00:06:31.237Z,13.60
2023-03-29T00:08:57.743Z,15.25
2023-03-29T00:11:24.927Z,19.02
2023-03-29T00:13:52.032Z,13.95
2023-03-29T00:16:18.576Z,16.23
2023-03-29T00:18:45.478Z,11.43
2023-03-29T00:21:12.208Z,11.30
2023-03-29T00:23:38.647Z,7.15
2023-03-29T00:26:07.671Z,11.82
2023-03-29T00:28:34.614Z,11.27
2023-03-29T00:31:12.844Z,13.80
2023-03-29T00:33:40.436Z,12.55
2023-03-29T00:36:08.304Z,11.50
2023-03-29T00:41:02.492Z,11.65
2023-03-29T00:43:29.274Z,14.52
2023-03-29T00:45:56.100Z,8.05
2023-03-29T00:48:26.447Z,8.90
2023-03-29T00:51:01.142Z,13.57
2023-03-29T00:53:32.465Z,13.10
2023-03-29T00:56:09.458Z,7.05
2023-03-29T00:59:06.658Z,9.68
2023-03-29T01:01:39.053Z,6.78
2023-03-29T01:04:11.804Z,9.43
2023-03-29T01:06:40.183Z,8.27
2023-03-29T01:09:13.502Z,9.55
2023-03-29T01:11:45.948Z,11.52
2023-03-29T01:14:18.812Z,11.25
2023-03-29T01:16:46.039Z,12.20
2023-03-29T01:19:18.997Z,11.68
2023-03-29T01:22:32.680Z,8.20
2023-03-29T01:25:45.589Z,9.70
2023-03-29T01:28:37.573Z,6.88
2023-03-29T01:31:12.897Z,7.90
2023-03-29T01:33:46.284Z,19.38
2023-03-29T01:36:18.619Z,7.13
2023-03-29T01:38:58.402Z,9.82
2023-03-29T01:41:34.601Z,9.48
2023-03-29T01:44:17.850Z,5.80
2023-03-29T01:46:51.912Z,4.78
2023-03-29T01:49:28.891Z,6.28
2023-03-29T01:52:01.310Z,11.45
2023-03-29T01:54:58.112Z,6.97
2023-03-29T01:57:26.522Z,14.00
2023-03-29T01:59:55.910Z,7.15
2023-03-29T02:02:26.466Z,8.27
2023-03-29T02:04:54.770Z,7.97
2023-03-29T02:07:25.048Z,4.88
2023-03-29T02:09:52.929Z,6.57
2023-03-29T02:14:46.249Z,6.75
2023-03-29T02:17:23.064Z,11.13
2023-03-29T02:19:53.910Z,5.68
2023-03-29T02:22:29.782Z,7.00
2023-03-29T02:24:58.535Z,7.35
2023-03-29T02:27:29.277Z,13.43
2023-03-29T02:29:56.269Z,10.65
2023-03-29T02:32:33.910Z,11.20
2023-03-29T02:35:07.659Z,7.93
2023-03-29T02:37:37.443Z,5.57
2023-03-29T02:40:04.707Z,5.18
2023-03-29T02:42:31.562Z,8.85
2023-03-29T02:45:00.033Z,7.95
2023-03-29T02:47:38.378Z,5.25
2023-03-29T02:50:05.568Z,7.07
2023-03-29T02:52:37.679Z,9.30
2023-03-29T02:55:08.341Z,8.48
2023-03-29T02:57:34.811Z,8.30
2023-03-29T03:00:01.307Z,63.63
2023-03-29T03:02:27.981Z,26.73
2023-03-29T03:04:54.513Z,12.60
2023-03-29T03:07:21.089Z,6.72
2023-03-29T03:09:47.578Z,8.82
2023-03-29T03:12:14.055Z,6.35
2023-03-29T03:14:40.504Z,8.82
2023-03-29T03:17:07.017Z,10.15
2023-03-29T03:19:33.540Z,17.00
2023-03-29T03:22:00.113Z,14.02
2023-03-29T03:24:26.624Z,9.60
2023-03-29T03:26:53.043Z,16.67
2023-03-29T03:29:19.504Z,26.85
2023-03-29T03:31:46.038Z,20.10
2023-03-29T03:34:12.506Z,18.73
2023-03-29T03:36:38.960Z,19.15
2023-03-29T03:39:05.462Z,29.00
2023-03-29T03:41:31.919Z,20.92
2023-03-29T03:43:58.884Z,12.07
2023-03-29T03:46:26.696Z,10.18
2023-03-29T03:48:54.816Z,16.05
2023-03-29T03:51:21.624Z,18.80
2023-03-29T03:53:48.093Z,20.52
2023-03-29T03:56:15.147Z,23.60
2023-03-29T03:58:41.636Z,25.33
2023-03-29T04:01:08.093Z,32.83
2023-03-29T04:03:34.710Z,27.48
2023-03-29T04:06:02.617Z,24.95
2023-03-29T04:08:29.235Z,38.15
2023-03-29T04:10:58.232Z,30.25
2023-03-29T04:13:26.216Z,44.20
2023-03-29T04:15:53.072Z,61.60
2023-03-29T04:18:20.776Z,58.97
2023-03-29T04:20:47.718Z,66.80
2023-03-29T04:23:14.960Z,59.50
2023-03-29T04:25:41.490Z,62.88
2023-03-29T04:28:08.076Z,71.20
2023-03-29T04:30:34.549Z,60.97
2023-03-29T04:33:01.139Z,55.72
2023-03-29T04:35:27.793Z,60.30
2023-03-29T04:37:54.259Z,59.42
2023-03-29T04:40:20.862Z,59.97
2023-03-29T04:42:47.616Z,68.18
2023-03-29T04:45:14.772Z,83.28
2023-03-29T04:47:41.612Z,101.43
2023-03-29T04:50:08.742Z,124.97
2023-03-29T04:52:35.301Z,86.97
2023-03-29T04:55:02.549Z,111.57
2023-03-29T04:57:29.111Z,99.50
2023-03-29T04:59:55.778Z,110.88
2023-03-29T05:02:22.399Z,116.90
2023-03-29T05:04:48.912Z,152.30
2023-03-29T05:07:15.494Z,126.28
2023-03-29T05:09:41.966Z,147.55
2023-03-29T05:12:08.444Z,117.95
2023-03-29T05:14:34.937Z,98.03
2023-03-29T05:17:01.452Z,180.60
2023-03-29T05:19:28.047Z,159.82
2023-03-29T05:21:54.538Z,237.18
2023-03-29T05:24:21.104Z,138.50
2023-03-29T05:26:47.598Z,127.15
2023-03-29T05:29:14.156Z,338.85
2023-03-29T05:31:40.681Z,109.13
2023-03-29T05:34:07.149Z,67.55
2023-03-29T05:36:33.800Z,60.80
2023-03-29T05:39:00.280Z,100.68
2023-03-29T05:41:26.730Z,32.28
2023-03-29T05:43:53.339Z,37.45
2023-03-29T05:46:19.859Z,54.40
2023-03-29T05:48:46.410Z,29.00
2023-03-29T05:51:12.915Z,85.90
2023-03-29T05:53:39.366Z,53.25
2023-03-29T05:56:06.451Z,20.50
2023-03-29T05:58:32.909Z,32.95
2023-03-29T06:00:59.458Z,35.03
2023-03-29T06:03:26.098Z,24.98
2023-03-29T06:05:59.444Z,29.88
2023-03-29T06:08:26.433Z,26.67
2023-03-29T06:11:03.821Z,18.83
2023-03-29T06:13:32.409Z,13.10
2023-03-29T06:15:59.260Z,63.25
2023-03-29T06:18:25.847Z,84.47
2023-03-29T06:20:53.247Z,95.47
2023-03-29T06:23:21.565Z,20.83
2023-03-29T06:25:48.740Z,17.60
2023-03-29T06:28:15.455Z,33.08
2023-03-29T06:30:42.057Z,17.42
2023-03-29T06:33:09.508Z,19.75
2023-03-29T06:35:36.839Z,15.02
2023-03-29T06:38:03.943Z,67.50
2023-03-29T06:40:31.324Z,16.08
2023-03-29T06:42:58.156Z,32.15
2023-03-29T06:45:27.418Z,32.65
2023-03-29T06:47:55.426Z,13.98
2023-03-29T06:50:22.014Z,16.90
2023-03-29T06:52:48.616Z,16.25
2023-03-29T06:55:15.400Z,10.57
2023-03-29T06:57:42.389Z,16.85
2023-03-29T07:00:10.168Z,18.88
2023-03-29T07:02:36.902Z,10.30
2023-03-29T07:05:03.561Z,11.65
2023-03-29T07:07:30.022Z,10.35
2023-03-29T07:09:56.459Z,17.42
2023-03-29T07:12:23.332Z,14.48
2023-03-29T07:14:49.795Z,9.45
2023-03-29T07:17:16.345Z,8.27
2023-03-29T07:19:42.773Z,32.67
2023-03-29T07:22:09.266Z,23.90
2023-03-29T07:24:35.732Z,9.30
2023-03-29T07:27:04.467Z,3.78
2023-03-29T07:29:32.222Z,8.43
2023-03-29T07:34:25.074Z,10.00
2023-03-29T07:36:51.588Z,7.50
2023-03-29T07:39:18.144Z,9.43
2023-03-29T07:41:44.616Z,30.55
2023-03-29T07:44:11.098Z,5.38
2023-03-29T07:46:37.574Z,7.65
2023-03-29T07:49:04.430Z,5.20
2023-03-29T07:51:30.885Z,7.60
2023-03-29T07:53:57.337Z,4.65
2023-03-29T07:56:23.841Z,5.57
2023-03-29T07:58:50.323Z,5.22
2023-03-29T08:01:19.345Z,4.13
2023-03-29T08:03:46.167Z,5.50
2023-03-29T08:06:12.643Z,5.10
2023-03-29T08:08:39.175Z,5.22
2023-03-29T08:11:05.850Z,6.25
2023-03-29T08:13:32.303Z,6.85
2023-03-29T08:15:58.747Z,5.65
2023-03-29T08:18:25.213Z,9.07
2023-03-29T08:20:51.661Z,6.13
2023-03-29T08:23:18.142Z,7.93
2023-03-29T08:25:46.320Z,5.88
2023-03-29T08:28:12.964Z,3.38
2023-03-29T08:30:39.482Z,6.22
2023-03-29T08:33:06.031Z,7.38
2023-03-29T08:35:32.584Z,5.28
2023-03-29T08:37:59.082Z,5.75
2023-03-29T08:40:28.594Z,4.72
2023-03-29T08:42:58.052Z,5.40
2023-03-29T08:45:56.973Z,10.68
2023-03-29T08:48:31.703Z,1.95
2023-03-29T08:51:03.954Z,7.47
2023-03-29T08:53:43.458Z,7.07
2023-03-29T08:56:18.148Z,5.63
2023-03-29T08:58:45.825Z,6.80
2023-03-29T09:01:12.737Z,5.15
2023-03-29T09:03:47.084Z,10.25
2023-03-29T09:06:14.603Z,7.13
2023-03-29T09:08:44.958Z,12.48
2023-03-29T09:11:17.278Z,5.93
2023-03-29T09:13:58.992Z,5.75
2023-03-29T09:16:31.431Z,32.63
2023-03-29T09:19:16.424Z,6.40
2023-03-29T09:21:58.982Z,3.53
2023-03-29T09:24:51.402Z,5.88
2023-03-29T09:27:28.467Z,5.90
2023-03-29T09:30:25.704Z,4.15
2023-03-29T09:33:21.102Z,8.05
2023-03-29T09:36:06.009Z,7.95
2023-03-29T09:38:36.976Z,5.30
2023-03-29T09:41:19.496Z,6.13
2023-03-29T09:43:48.588Z,9.57
2023-03-29T09:46:42.026Z,4.53
2023-03-29T09:49:16.023Z,5.38
2023-03-29T09:51:47.445Z,4.45
2023-03-29T09:54:13.987Z,4.05
2023-03-29T09:56:40.960Z,5.00
2023-03-29T09:59:11.412Z,6.38
2023-03-29T10:01:41.090Z,6.95
2023-03-29T10:04:09.372Z,4.55
2023-03-29T10:06:36.336Z,4.25
2023-03-29T10:09:03.709Z,7.05
2023-03-29T10:11:33.120Z,6.50
2023-03-29T10:14:13.816Z,7.63
2023-03-29T10:16:42.714Z,10.95
2023-03-29T10:19:30.534Z,5.05
2023-03-29T10:22:00.608Z,6.95
2023-03-29T10:24:27.948Z,9.45
2023-03-29T10:26:59.914Z,5.85
2023-03-29T10:29:27.194Z,3.95
2023-03-29T10:31:54.312Z,10.77
2023-03-29T10:37:00.203Z,5.25
2023-03-29T10:39:33.954Z,5.70
2023-03-29T10:42:04.009Z,7.70
2023-03-29T10:44:34.426Z,7.90
2023-03-29T10:47:18.438Z,11.93
2023-03-29T10:50:05.808Z,5.47
2023-03-29T10:52:33.209Z,5.13
2023-03-29T10:54:59.770Z,9.02
2023-03-29T10:57:50.755Z,11.05
2023-03-29T11:00:39.944Z,13.02
2023-03-29T11:03:25.001Z,11.30
2023-03-29T11:06:33.772Z,8.60
2023-03-29T11:09:06.676Z,12.80
2023-03-29T11:11:47.061Z,6.85
2023-03-29T11:14:28.623Z,10.02
2023-03-29T11:17:04.115Z,17.05
2023-03-29T11:19:45.832Z,11.20
2023-03-29T11:22:30.822Z,9.02
2023-03-29T11:25:11.554Z,6.57
2023-03-29T11:27:43.634Z,7.50
2023-03-29T11:30:22.848Z,8.05
2023-03-29T11:33:20.151Z,7.40
2023-03-29T11:36:02.957Z,6.80
2023-03-29T11:38:35.871Z,7.72
2023-03-29T11:41:32.024Z,11.45
2023-03-29T11:44:26.495Z,13.85
2023-03-29T11:47:00.213Z,12.15
2023-03-29T11:52:01.491Z,13.60
2023-03-29T11:54:33.884Z,13.70
2023-03-29T11:57:11.436Z,12.60
2023-03-29T11:59:45.380Z,14.70
2023-03-29T12:04:48.590Z,7.05
2023-03-29T12:07:30.568Z,17.45
2023-03-29T12:10:09.545Z,20.15
2023-03-29T12:12:44.891Z,10.85
2023-03-29T12:15:21.211Z,5.97
2023-03-29T12:18:07.081Z,19.83
2023-03-29T12:20:37.846Z,32.83
2023-03-29T12:23:07.159Z,10.60
2023-03-29T12:25:50.450Z,14.82
2023-03-29T12:28:31.773Z,32.95
2023-03-29T12:31:16.678Z,11.95
2023-03-29T12:34:15.956Z,12.45
2023-03-29T12:41:43.767Z,6.97
2023-03-29T12:44:15.989Z,13.80
2023-03-29T12:46:43.464Z,18.10
2023-03-29T12:49:25.182Z,12.80
2023-03-29T12:51:51.738Z,12.65
2023-03-29T12:54:22.841Z,8.82
2023-03-29T12:56:52.188Z,5.40
2023-03-29T12:59:52.844Z,6.90
2023-03-29T13:02:19.309Z,5.32
2023-03-29T13:04:50.741Z,8.52
2023-03-29T13:07:23.073Z,6.10
2023-03-29T13:09:53.549Z,5.47
2023-03-29T13:12:35.414Z,5.55
2023-03-29T13:15:23.444Z,6.93
2023-03-29T13:18:06.024Z,11.18
2023-03-29T13:20:56.391Z,17.38
2023-03-29T13:23:43.129Z,9.45
2023-03-29T13:26:47.384Z,24.23
2023-03-29T13:29:19.898Z,5.85
2023-03-29T13:31:46.413Z,7.32
2023-03-29T13:34:21.456Z,7.97
2023-03-29T13:36:50.884Z,14.10
2023-03-29T13:39:24.471Z,14.10
2023-03-29T13:41:53.486Z,12.80
2023-03-29T13:44:22.650Z,39.72
2023-03-29T13:47:05.559Z,18.88
2023-03-29T13:49:34.257Z,16.23
2023-03-29T13:52:19.728Z,9.93
2023-03-29T13:54:55.984Z,14.98
2023-03-29T13:57:36.057Z,14.63
2023-03-29T14:00:10.762Z,9.32
2023-03-29T14:02:37.293Z,11.05
2023-03-29T14:05:07.883Z,9.02
2023-03-29T14:07:39.258Z,9.18
2023-03-29T14:10:06.714Z,9.13
2023-03-29T14:12:38.345Z,26.00
2023-03-29T14:15:07.567Z,15.05
2023-03-29T14:20:02.912Z,9.80
2023-03-29T14:22:32.816Z,9.90
2023-03-29T14:25:05.649Z,16.95
2023-03-29T14:27:35.777Z,9.20
2023-03-29T14:30:02.276Z,11.02
2023-03-29T14:32:31.092Z,13.10
2023-03-29T14:34:57.861Z,8.55
2023-03-29T14:37:29.771Z,10.13
2023-03-29T14:39:58.636Z,12.88
2023-03-29T14:42:27.939Z,9.70
2023-03-29T14:45:07.066Z,12.43
2023-03-29T14:47:34.195Z,8.43
2023-03-29T14:52:30.114Z,10.40
2023-03-29T14:54:59.943Z,10.02
2023-03-29T14:57:32.314Z,12.18
2023-03-29T15:00:01.054Z,16.90
2023-03-29T15:02:32.827Z,24.25
2023-03-29T15:05:01.781Z,11.25
2023-03-29T15:07:28.779Z,13.45
2023-03-29T15:09:57.463Z,16.58
2023-03-29T15:12:24.640Z,13.25
2023-03-29T15:17:24.117Z,11.43
2023-03-29T15:19:59.480Z,14.55
2023-03-29T15:22:35.298Z,12.02
2023-03-29T15:25:01.949Z,14.80
2023-03-29T15:27:39.507Z,15.27
2023-03-29T15:30:13.219Z,14.43
2023-03-29T15:32:39.841Z,17.55
2023-03-29T15:35:09.222Z,21.67
2023-03-29T15:37:36.287Z,17.08
2023-03-29T15:40:03.037Z,20.35
2023-03-29T15:42:29.499Z,14.38
2023-03-29T15:44:56.217Z,16.85
2023-03-29T15:47:23.052Z,16.63
2023-03-29T15:49:49.717Z,16.58
2023-03-29T15:52:16.146Z,21.75
2023-03-29T15:54:42.632Z,27.17
2023-03-29T15:57:14.073Z,42.10
2023-03-29T15:59:40.727Z,33.50
2023-03-29T16:02:12.026Z,37.60
2023-03-29T16:04:38.551Z,31.70
2023-03-29T16:07:10.348Z,62.80
2023-03-29T16:09:36.889Z,38.58
2023-03-29T16:12:03.530Z,40.63
2023-03-29T16:14:31.268Z,39.25
2023-03-29T16:17:00.347Z,42.22
2023-03-29T16:19:29.092Z,52.42
2023-03-29T16:21:56.544Z,49.25
2023-03-29T16:24:26.317Z,58.63
2023-03-29T16:26:55.725Z,38.65
2023-03-29T16:29:23.885Z,41.50
2023-03-29T16:31:51.762Z,46.08
2023-03-29T16:34:19.089Z,86.85
2023-03-29T16:39:12.841Z,35.00
2023-03-29T16:41:40.917Z,58.10
2023-03-29T16:44:07.761Z,31.98
2023-03-29T16:46:34.381Z,33.22
2023-03-29T16:49:00.909Z,32.58
2023-03-29T16:51:27.338Z,35.38
2023-03-29T16:53:53.856Z,35.75
2023-03-29T16:56:20.304Z,38.65
2023-03-29T16:58:46.746Z,32.85
2023-03-29T17:01:16.696Z,33.75
2023-03-29T17:03:44.062Z,26.20
2023-03-29T17:08:38.770Z,26.77
2023-03-29T17:11:06.285Z,40.28
2023-03-29T17:13:33.290Z,38.80
2023-03-29T17:15:59.780Z,42.67
2023-03-29T17:18:27.255Z,37.38
2023-03-29T17:23:24.628Z,38.47
2023-03-29T17:25:51.359Z,43.83
2023-03-29T17:28:17.855Z,47.38
2023-03-29T17:30:45.592Z,37.33
2023-03-29T17:33:12.198Z,34.85
2023-03-29T17:35:41.799Z,36.90
2023-03-29T17:38:08.664Z,35.70
2023-03-29T17:40:35.282Z,38.28
2023-03-29T17:43:01.853Z,42.80
2023-03-29T17:45:28.358Z,47.40
2023-03-29T17:47:54.855Z,50.33
2023-03-29T17:50:21.396Z,40.20
2023-03-29T17:52:47.900Z,43.00
2023-03-29T17:55:14.438Z,57.60
2023-03-29T17:57:42.084Z,39.13
2023-03-29T18:00:11.876Z,40.88
2023-03-29T18:02:39.793Z,34.35
2023-03-29T18:05:07.524Z,34.63
2023-03-29T18:07:34.008Z,33.30
2023-03-29T18:10:00.440Z,37.88
2023-03-29T18:12:27.743Z,113.53
2023-03-29T18:14:54.972Z,77.30
2023-03-29T18:17:21.500Z,77.75
2023-03-29T18:19:48.072Z,77.68
2023-03-29T18:22:14.598Z,124.35
2023-03-29T18:24:41.076Z,150.90
2023-03-29T18:27:07.524Z,149.07
2023-03-29T18:29:34.008Z,176.68
2023-03-29T18:32:00.498Z,158.68
2023-03-29T18:34:27.055Z,184.88
2023-03-29T18:36:53.531Z,153.40
2023-03-29T18:39:19.999Z,161.65
2023-03-29T18:41:46.435Z,115.35
2023-03-29T18:44:12.887Z,96.70
2023-03-29T18:46:39.820Z,100.07
2023-03-29T18:49:06.769Z,88.40
2023-03-29T18:51:33.883Z,156.15
2023-03-29T18:54:00.992Z,142.55
2023-03-29T18:56:27.947Z,130.65
2023-03-29T18:58:54.745Z,164.25
2023-03-29T19:01:21.282Z,142.88
2023-03-29T19:03:47.983Z,123.95
2023-03-29T19:06:14.969Z,102.85
2023-03-29T19:08:42.038Z,100.78
2023-03-29T19:11:10.728Z,72.25
2023-03-29T19:13:37.329Z,113.90
2023-03-29T19:16:04.251Z,100.35
2023-03-29T19:18:31.103Z,80.78
2023-03-29T19:20:57.645Z,64.72
2023-03-29T19:23:25.634Z,69.43
2023-03-29T19:26:01.723Z,95.18
2023-03-29T19:28:28.892Z,97.60
2023-03-29T19:30:56.528Z,105.20
2023-03-29T19:33:23.078Z,113.40
2023-03-29T19:35:50.885Z,520.80
2023-03-29T19:38:20.994Z,185.77
2023-03-29T19:40:49.077Z,213.52
2023-03-29T19:43:15.703Z,272.63
2023-03-29T19:45:46.897Z,264.25
2023-03-29T19:48:21.753Z,207.20
2023-03-29T19:50:49.862Z,155.85
2023-03-29T19:53:16.349Z,156.15
2023-03-29T19:55:43.762Z,144.15
2023-03-29T19:58:10.205Z,115.55
2023-03-29T20:00:36.815Z,161.25
2023-03-29T20:03:03.317Z,179.88
2023-03-29T20:05:29.813Z,166.18
2023-03-29T20:07:56.281Z,134.25
2023-03-29T20:10:22.724Z,124.45
2023-03-29T20:12:49.215Z,158.25
2023-03-29T20:15:15.737Z,134.45
2023-03-29T20:17:42.273Z,120.13
2023-03-29T20:20:09.854Z,113.93
2023-03-29T20:22:37.755Z,147.48
2023-03-29T20:25:05.057Z,140.48
2023-03-29T20:27:31.497Z,133.68
2023-03-29T20:29:57.991Z,143.02
2023-03-29T20:32:24.441Z,142.52
2023-03-29T20:34:50.901Z,139.13
2023-03-29T20:37:17.488Z,136.90
2023-03-29T20:39:43.923Z,139.13
2023-03-29T20:42:10.373Z,123.07
2023-03-29T20:44:36.888Z,134.73
2023-03-29T20:47:03.341Z,143.35
2023-03-29T20:49:33.973Z,146.75
2023-03-29T20:52:00.423Z,147.82
2023-03-29T20:54:26.928Z,127.85
2023-03-29T20:56:53.411Z,119.85
2023-03-29T20:59:19.985Z,110.30
2023-03-29T21:01:46.506Z,110.85
2023-03-29T21:04:13.078Z,126.80
2023-03-29T21:06:39.584Z,177.50
2023-03-29T21:09:06.077Z,153.23
2023-03-29T21:11:32.584Z,146.35
2023-03-29T21:13:59.105Z,128.93
2023-03-29T21:16:25.737Z,117.53
2023-03-29T21:18:53.113Z,121.85
2023-03-29T21:21:19.602Z,89.00
2023-03-29T21:23:46.073Z,88.75
2023-03-29T21:26:12.595Z,115.18
2023-03-29T21:28:39.096Z,110.03
2023-03-29T21:31:06.555Z,118.97
2023-03-29T21:33:33.570Z,150.23
2023-03-29T21:36:00.320Z,264.33
2023-03-29T21:38:27.126Z,291.05
2023-03-29T21:40:53.668Z,200.00
2023-03-29T21:43:20.237Z,147.77
2023-03-29T21:45:50.343Z,116.78
2023-03-29T21:48:17.630Z,107.55
2023-03-29T21:50:44.119Z,108.28
2023-03-29T21:53:10.617Z,116.25
2023-03-29T21:55:37.112Z,97.82
2023-03-29T21:58:04.740Z,97.00
2023-03-29T22:00:31.506Z,92.32
2023-03-29T22:02:58.042Z,78.03
2023-03-29T22:05:24.690Z,76.28
2023-03-29T22:07:51.108Z,66.65
2023-03-29T22:10:17.690Z,69.10
2023-03-29T22:12:44.188Z,62.90
2023-03-29T22:15:11.074Z,57.60
2023-03-29T22:17:37.886Z,60.30
2023-03-29T22:20:04.915Z,57.40
2023-03-29T22:22:31.376Z,51.92
2023-03-29T22:24:57.778Z,51.78
2023-03-29T22:27:24.245Z,42.47
2023-03-29T22:29:50.723Z,36.60
2023-03-29T22:32:17.193Z,36.15
2023-03-29T22:34:43.648Z,35.08
2023-03-29T22:37:10.148Z,37.03
2023-03-29T22:39:36.937Z,33.05
2023-03-29T22:42:03.620Z,32.60
2023-03-29T22:44:30.262Z,37.38
2023-03-29T22:46:56.754Z,52.35
2023-03-29T22:49:23.264Z,52.55
2023-03-29T22:51:49.738Z,64.30
2023-03-29T22:54:16.197Z,52.10
2023-03-29T22:56:42.764Z,44.88
2023-03-29T22:59:09.291Z,28.77
2023-03-29T23:01:35.862Z,32.75
2023-03-29T23:04:02.459Z,34.47
2023-03-29T23:06:28.936Z,40.53
2023-03-29T23:08:55.417Z,46.35
2023-03-29T23:11:21.957Z,43.65
2023-03-29T23:13:48.394Z,42.38
2023-03-29T23:16:15.724Z,33.17
2023-03-29T23:18:42.259Z,33.75
2023-03-29T23:21:08.751Z,33.38
2023-03-29T23:23:35.485Z,31.63
2023-03-29T23:26:02.325Z,33.20
2023-03-29T23:28:29.532Z,31.05
2023-03-29T23:30:57.403Z,32.28
2023-03-29T23:33:24.939Z,32.85
2023-03-29T23:38:17.822Z,30.63
2023-03-29T23:40:44.326Z,33.90
2023-03-29T23:43:10.848Z,24.88
2023-03-29T23:45:37.318Z,27.95
2023-03-29T23:48:03.926Z,58.25
2023-03-29T23:50:30.431Z,52.92
2023-03-29T23:52:56.886Z,48.67
2023-03-29T23:55:23.329Z,42.42
2023-03-29T23:57:49.802Z,31.13
